Time;durP1;ratioP1;P1;durP2;ratioP2;P2;SDS_P1;SDS_P2;PMS_P1;PMS_P2;Temp;Humidity;BMP_temperature;BMP_pressure;BME280_temperature;BME280_humidity;BME280_pressure;Samples;Min_cycle;Max_cycle;Signal;HPM_P1;HPM_P2
2022/10/14 00:01:29;;;;;;;;;;;;;;;11.83;100.00;96697.50;5096457;28;20053;-76
2022/10/14 00:03:55;;;;;;;;;;;;;;;11.84;100.00;96696.47;5096880;28;20433;-76
2022/10/14 00:06:25;;;;;;;;;;;;;;;11.83;100.00;96691.47;5095772;28;19962;-76
2022/10/14 00:08:51;;;;;;;;;;;;;;;11.83;100.00;96697.50;5096385;28;20338;-76
2022/10/14 00:11:21;;;;;;;;;;;;;;;11.84;100.00;96707.00;5096645;28;19967;-76
2022/10/14 00:13:47;;;;;;;;;;;;;;;11.84;100.00;96699.09;5095298;28;19950;-76
2022/10/14 00:16:15;;;;;;;;;;;;;;;11.84;100.00;96699.09;5096543;28;20412;-75
2022/10/14 00:18:40;;;;;;;;;;;;;;;11.84;100.00;96693.84;5095303;28;19978;-75
2022/10/14 00:21:06;;;;;;;;;;;;;;;11.85;100.00;96702.56;5095679;28;19958;-75
2022/10/14 00:23:32;;;;;;;;;;;;;;;11.84;100.00;96707.00;5094664;28;20049;-75
2022/10/14 00:25:58;;;;;;;;;;;;;;;11.85;100.00;96695.47;5096029;28;19961;-75
2022/10/14 00:28:24;;;;;;;;;;;;;;;11.85;100.00;96705.19;5095326;28;19971;-75
2022/10/14 00:30:57;;;;;;;;;;;;;;;11.84;100.00;96704.34;5096184;28;19963;-75
2022/10/14 00:33:24;;;;;;;;;;;;;;;11.82;100.00;96708.22;5096253;28;19952;-75
2022/10/14 00:35:56;;;;;;;;;;;;;;;11.83;100.00;96710.66;5095709;28;19960;-75
2022/10/14 00:38:23;;;;;;;;;;;;;;;11.83;100.00;96715.13;5095886;28;19955;-75
2022/10/14 00:40:48;;;;;;;;;;;;;;;11.83;100.00;96715.91;5095683;28;19951;-75
2022/10/14 00:43:14;;;;;;;;;;;;;;;11.81;100.00;96714.53;5095943;28;20468;-75
2022/10/14 00:45:40;;;;;;;;;;;;;;;11.79;100.00;96705.03;5095109;28;20372;-75
2022/10/14 00:48:07;;;;;;;;;;;;;;;11.79;100.00;96712.09;5095891;28;20308;-75
2022/10/14 00:50:34;;;;;;;;;;;;;;;11.78;100.00;96713.94;5095363;28;19961;-75
2022/10/14 00:53:00;;;;;;;;;;;;;;;11.79;100.00;96706.84;5095669;28;19959;-75
2022/10/14 00:55:27;;;;;;;;;;;;;;;11.79;100.00;96707.66;5095487;28;19951;-75
2022/10/14 00:57:53;;;;;;;;;;;;;;;11.80;100.00;96708.47;5095969;28;19950;-75
2022/10/14 01:00:19;;;;;;;;;;;;;;;11.80;100.00;96711.09;5095281;28;19982;-75
2022/10/14 01:02:46;;;;;;;;;;;;;;;11.81;100.00;96704.03;5095311;28;19954;-75
2022/10/14 01:05:13;;;;;;;;;;;;;;;11.80;100.00;96705.84;5095430;28;19962;-75
2022/10/14 01:07:48;;;;;;;;;;;;;;;11.80;100.00;96708.47;5095406;28;20295;-75
2022/10/14 01:10:32;;;;;;;;;;;;;;;11.81;100.00;96704.03;5093892;28;19969;-75
2022/10/14 01:13:14;;;;;;;;;;;;;;;11.81;100.00;96704.81;5095142;28;19961;-75
2022/10/14 01:15:48;;;;;;;;;;;;;;;11.83;100.00;96694.88;5095180;28;20294;-76
2022/10/14 01:18:18;;;;;;;;;;;;;;;11.83;100.00;96694.88;5081023;28;19983;-76
2022/10/14 01:20:53;;;;;;;;;;;;;;;11.85;100.00;96692.84;5094978;28;19960;-76
2022/10/14 01:23:42;;;;;;;;;;;;;;;11.84;100.00;96688.59;5083226;28;19950;-75
2022/10/14 01:26:14;;;;;;;;;;;;;;;11.86;100.00;96683.13;5094847;28;19955;-74
2022/10/14 01:28:49;;;;;;;;;;;;;;;11.85;100.00;96684.97;5094757;28;19948;-75
2022/10/14 01:31:19;;;;;;;;;;;;;;;11.85;100.00;96674.44;5094919;28;20306;-75
2022/10/14 01:33:46;;;;;;;;;;;;;;;11.87;100.00;96666.34;5094785;28;20409;-75
2022/10/14 01:36:18;;;;;;;;;;;;;;;11.86;100.00;96670.78;5094716;28;19959;-75
2022/10/14 01:38:55;;;;;;;;;;;;;;;11.87;100.00;96671.59;5094843;28;19958;-75
2022/10/14 01:41:21;;;;;;;;;;;;;;;11.87;100.00;96677.66;5094987;28;19950;-75
2022/10/14 01:43:48;;;;;;;;;;;;;;;11.87;100.00;96677.66;5094517;28;20409;-75
2022/10/14 01:46:15;;;;;;;;;;;;;;;11.87;100.00;96677.66;5094607;28;19957;-75
2022/10/14 01:48:44;;;;;;;;;;;;;;;11.88;100.00;96683.72;5094784;28;19961;-75
2022/10/14 01:51:14;;;;;;;;;;;;;;;11.88;100.00;96681.91;5094481;28;20429;-75
2022/10/14 01:53:48;;;;;;;;;;;;;;;11.86;100.00;96678.66;5094627;28;19952;-75
2022/10/14 01:56:15;;;;;;;;;;;;;;;11.87;100.00;96679.50;5094711;28;19956;-75
2022/10/14 01:58:42;;;;;;;;;;;;;;;11.88;100.00;96674.03;5093470;28;19961;-75
2022/10/14 02:01:08;;;;;;;;;;;;;;;11.88;100.00;96681.09;5094357;28;19961;-75
2022/10/14 02:03:38;;;;;;;;;;;;;;;11.88;100.00;96675.81;5094137;28;19962;-75
2022/10/14 02:06:07;;;;;;;;;;;;;;;11.88;100.00;96678.44;5094089;28;19968;-75
2022/10/14 02:08:46;;;;;;;;;;;;;;;11.88;100.00;96674.03;5094724;28;20433;-75
2022/10/14 02:11:16;;;;;;;;;;;;;;;11.88;100.00;96674.03;5094128;28;20421;-75
2022/10/14 02:13:54;;;;;;;;;;;;;;;11.89;100.00;96669.59;5094005;28;20323;-75
2022/10/14 02:16:34;;;;;;;;;;;;;;;11.85;100.00;96669.19;5094110;28;19959;-75
2022/10/14 02:19:22;;;;;;;;;;;;;;;11.81;100.00;96661.97;5094195;28;19986;-75
2022/10/14 02:21:55;;;;;;;;;;;;;;;11.78;100.00;96661.38;5084098;28;20429;-75
2022/10/14 02:24:31;;;;;;;;;;;;;;;11.77;100.00;96651.88;5093062;28;20418;-75
2022/10/14 02:27:01;;;;;;;;;;;;;;;11.77;100.00;96656.34;5092789;28;19962;-75
2022/10/14 02:29:28;;;;;;;;;;;;;;;11.76;100.00;96655.56;5094280;28;19956;-75
2022/10/14 02:31:55;;;;;;;;;;;;;;;11.76;100.00;96652.94;5093723;28;19970;-75
2022/10/14 02:34:22;;;;;;;;;;;;;;;11.78;100.00;96653.50;5093137;28;19951;-75
2022/10/14 02:36:49;;;;;;;;;;;;;;;11.77;100.00;96646.63;5093851;28;19955;-75
2022/10/14 02:39:21;;;;;;;;;;;;;;;11.78;100.00;96650.09;5093641;28;19959;-75
2022/10/14 02:41:47;;;;;;;;;;;;;;;11.78;100.00;96639.56;5094175;28;19950;-75
2022/10/14 02:44:13;;;;;;;;;;;;;;;11.78;100.00;96632.50;5094182;28;20016;-75
2022/10/14 02:46:40;;;;;;;;;;;;;;;11.79;100.00;96630.66;5093672;28;19955;-75
2022/10/14 02:49:05;;;;;;;;;;;;;;;11.79;100.00;96628.81;5094098;28;19953;-75
2022/10/14 02:51:31;;;;;;;;;;;;;;;11.79;100.00;96628.81;5093553;28;20370;-75
2022/10/14 02:53:57;;;;;;;;;;;;;;;11.82;100.00;96630.19;5093407;28;20440;-75
2022/10/14 02:56:23;;;;;;;;;;;;;;;11.82;100.00;96624.16;5094248;28;19954;-75
2022/10/14 02:58:49;;;;;;;;;;;;;;;11.82;100.00;96611.81;5093852;28;20031;-75
2022/10/14 03:01:15;;;;;;;;;;;;;;;11.82;100.00;96614.44;5093608;28;19960;-75
2022/10/14 03:03:41;;;;;;;;;;;;;;;11.82;100.00;96613.63;5093612;28;20333;-75
2022/10/14 03:06:07;;;;;;;;;;;;;;;11.82;100.00;96622.31;5093308;28;20054;-75
2022/10/14 03:08:32;;;;;;;;;;;;;;;11.82;100.00;96617.06;5094555;28;19991;-75
2022/10/14 03:10:59;;;;;;;;;;;;;;;11.83;100.00;96612.63;5097640;28;20442;-75
2022/10/14 03:13:24;;;;;;;;;;;;;;;11.83;100.00;96607.38;5098041;28;19952;-75
2022/10/14 03:15:50;;;;;;;;;;;;;;;11.83;100.00;96610.00;5097620;28;20058;-75
2022/10/14 03:18:16;;;;;;;;;;;;;;;11.82;100.00;96609.19;5097275;28;20009;-75
2022/10/14 03:20:43;;;;;;;;;;;;;;;11.82;100.00;96598.66;5097173;28;20341;-75
2022/10/14 03:23:10;;;;;;;;;;;;;;;11.82;100.00;96588.16;5096899;28;19964;-75
2022/10/14 03:25:36;;;;;;;;;;;;;;;11.81;100.00;96594.44;5097125;28;20423;-75
2022/10/14 03:28:02;;;;;;;;;;;;;;;11.82;100.00;96592.63;5097370;28;19956;-75
2022/10/14 03:30:28;;;;;;;;;;;;;;;11.81;100.00;96589.19;5097105;28;19979;-75
2022/10/14 03:32:54;;;;;;;;;;;;;;;11.82;100.00;96588.16;5097027;28;19961;-75
2022/10/14 03:35:20;;;;;;;;;;;;;;;11.83;100.00;96581.09;5096050;28;19986;-75
2022/10/14 03:37:46;;;;;;;;;;;;;;;11.82;100.00;96580.28;5097783;28;19949;-75
2022/10/14 03:40:12;;;;;;;;;;;;;;;11.83;100.00;96578.47;5097028;28;19949;-75
2022/10/14 03:42:38;;;;;;;;;;;;;;;11.83;100.00;96581.09;5096162;28;19952;-75
2022/10/14 03:45:04;;;;;;;;;;;;;;;11.83;100.00;96578.47;5096971;28;20007;-75
2022/10/14 03:47:30;;;;;;;;;;;;;;;11.82;100.00;96582.09;5096950;28;19958;-75
2022/10/14 03:49:56;;;;;;;;;;;;;;;11.82;100.00;96582.09;5096777;28;19958;-75
2022/10/14 03:52:22;;;;;;;;;;;;;;;11.82;100.00;96576.84;5097188;28;19971;-75
2022/10/14 03:54:47;;;;;;;;;;;;;;;11.80;100.00;96577.09;5096561;28;19991;-75
2022/10/14 03:57:13;;;;;;;;;;;;;;;11.81;100.00;96570.00;5096115;28;20007;-75
2022/10/14 03:59:39;;;;;;;;;;;;;;;11.79;100.00;96571.03;5096579;28;19960;-75
2022/10/14 04:02:05;;;;;;;;;;;;;;;11.79;100.00;96568.38;5095425;28;20372;-75
2022/10/14 04:04:31;;;;;;;;;;;;;;;11.80;100.00;96566.59;5096335;28;19950;-75
2022/10/14 04:06:57;;;;;;;;;;;;;;;11.79;100.00;96563.13;5096643;28;20420;-75
2022/10/14 04:09:24;;;;;;;;;;;;;;;11.79;100.00;96557.09;5095483;28;19962;-75
2022/10/14 04:11:49;;;;;;;;;;;;;;;11.79;100.00;96564.97;5096721;28;19977;-75
2022/10/14 04:14:15;;;;;;;;;;;;;;;11.79;100.00;96551.84;5096655;28;20321;-75
2022/10/14 04:16:41;;;;;;;;;;;;;;;11.79;100.00;96554.47;5096097;28;20012;-75
2022/10/14 04:19:07;;;;;;;;;;;;;;;11.78;100.00;96545.00;5096067;28;20006;-75
2022/10/14 04:21:33;;;;;;;;;;;;;;;11.77;100.00;96551.25;5095059;28;20423;-75
2022/10/14 04:23:59;;;;;;;;;;;;;;;11.77;100.00;96543.38;5096262;28;19951;-76
2022/10/14 04:26:25;;;;;;;;;;;;;;;11.77;100.00;96552.03;5095294;28;19995;-75
2022/10/14 04:28:50;;;;;;;;;;;;;;;11.78;100.00;96543.16;5096221;28;19985;-76
2022/10/14 04:31:16;;;;;;;;;;;;;;;11.78;100.00;96545.78;5095940;28;19978;-75
2022/10/14 04:33:42;;;;;;;;;;;;;;;11.78;100.00;96553.66;5096107;28;20298;-74
2022/10/14 04:36:08;;;;;;;;;;;;;;;11.78;100.00;96552.88;5094750;28;20366;-75
2022/10/14 04:38:34;;;;;;;;;;;;;;;11.78;100.00;96555.50;5095324;28;19964;-74
2022/10/14 04:41:00;;;;;;;;;;;;;;;11.78;100.00;96545.00;5095928;28;20109;-74
2022/10/14 04:43:26;;;;;;;;;;;;;;;11.77;100.00;96544.16;5095811;28;20464;-74
2022/10/14 04:45:52;;;;;;;;;;;;;;;11.77;100.00;96543.38;5094547;28;20301;-74
2022/10/14 04:48:18;;;;;;;;;;;;;;;11.76;100.00;96541.78;5095878;28;19961;-75
2022/10/14 04:50:43;;;;;;;;;;;;;;;11.74;100.00;96547.25;5095384;28;19964;-75
2022/10/14 04:53:10;;;;;;;;;;;;;;;11.72;100.00;96548.50;5095590;28;19952;-74
2022/10/14 04:55:36;;;;;;;;;;;;;;;11.70;100.00;96540.03;5095563;28;19955;-75
2022/10/14 04:58:02;;;;;;;;;;;;;;;11.68;100.00;96542.09;5095514;28;19986;-75
2022/10/14 05:00:29;;;;;;;;;;;;;;;11.63;100.00;96537.47;5095082;28;19963;-75
2022/10/14 05:02:55;;;;;;;;;;;;;;;11.61;100.00;96520.34;5095195;28;20029;-75
2022/10/14 05:05:21;;;;;;;;;;;;;;;11.58;100.00;96519.75;5095462;28;20397;-76
2022/10/14 05:07:47;;;;;;;;;;;;;;;11.58;100.00;96514.50;5095393;28;20032;-75
2022/10/14 05:10:13;;;;;;;;;;;;;;;11.58;100.00;96524.22;5095299;28;20001;-75
2022/10/14 05:12:38;;;;;;;;;;;;;;;11.56;100.00;96513.94;5095346;28;20348;-75
2022/10/14 05:15:05;;;;;;;;;;;;;;;11.56;100.00;96513.94;5095033;28;19966;-75
2022/10/14 05:17:31;;;;;;;;;;;;;;;11.60;100.00;96500.38;5094886;28;19977;-75
2022/10/14 05:19:57;;;;;;;;;;;;;;;11.61;100.00;96499.31;5095074;28;19970;-75
2022/10/14 05:22:24;;;;;;;;;;;;;;;11.63;100.00;96511.22;5095003;28;20443;-75
2022/10/14 05:24:50;;;;;;;;;;;;;;;11.63;100.00;96503.31;5094926;28;19962;-75
2022/10/14 05:27:16;;;;;;;;;;;;;;;11.64;100.00;96498.91;5094898;28;19951;-75
2022/10/14 05:29:42;;;;;;;;;;;;;;;11.64;100.00;96501.53;5094683;28;20412;-75
2022/10/14 05:32:08;;;;;;;;;;;;;;;11.64;100.00;96493.66;5094655;28;20006;-75
2022/10/14 05:34:34;;;;;;;;;;;;;;;11.63;100.00;96492.81;5094683;28;19965;-76
2022/10/14 05:37:01;;;;;;;;;;;;;;;11.63;100.00;96492.03;5094850;28;19956;-75
2022/10/14 05:39:27;;;;;;;;;;;;;;;11.63;100.00;96489.41;5094861;28;19957;-75
2022/10/14 05:41:53;;;;;;;;;;;;;;;11.62;100.00;96483.34;5093738;28;19976;-75
2022/10/14 05:44:19;;;;;;;;;;;;;;;11.63;100.00;96489.41;5094736;28;20366;-75
2022/10/14 05:46:44;;;;;;;;;;;;;;;11.61;100.00;96496.69;5093541;28;19997;-75
2022/10/14 05:49:10;;;;;;;;;;;;;;;11.59;100.00;96489.06;5094847;28;19958;-74
2022/10/14 05:51:37;;;;;;;;;;;;;;;11.55;100.00;96482.66;5094425;28;19972;-75
2022/10/14 05:54:03;;;;;;;;;;;;;;;11.54;100.00;96484.47;5094543;28;19946;-75
2022/10/14 05:56:29;;;;;;;;;;;;;;;11.62;100.00;96485.97;5094386;28;19958;-74
2022/10/14 05:58:55;;;;;;;;;;;;;;;11.80;100.00;96487.75;5092895;28;19950;-75
2022/10/14 06:01:21;;;;;;;;;;;;;;;11.87;100.00;96483.19;5093321;28;20074;-75
2022/10/14 06:03:50;;;;;;;;;;;;;;;11.89;100.00;96478.56;5094150;28;20420;-75
2022/10/14 06:06:17;;;;;;;;;;;;;;;11.88;100.00;96478.75;5093339;28;19948;-74
2022/10/14 06:08:43;;;;;;;;;;;;;;;11.84;100.00;96475.75;5094268;28;19952;-75
2022/10/14 06:11:10;;;;;;;;;;;;;;;11.84;100.00;96481.00;5092950;28;20332;-75
2022/10/14 06:13:36;;;;;;;;;;;;;;;11.84;100.00;96491.50;5094051;28;19967;-75
2022/10/14 06:16:03;;;;;;;;;;;;;;;11.83;100.00;96487.31;5094122;28;20430;-75
2022/10/14 06:18:29;;;;;;;;;;;;;;;11.86;100.00;96488.66;5093733;28;19986;-75
2022/10/14 06:20:55;;;;;;;;;;;;;;;11.87;100.00;96487.66;5094134;28;20037;-75
2022/10/14 06:23:21;;;;;;;;;;;;;;;11.86;100.00;96486.03;5094021;28;19956;-75
2022/10/14 06:25:47;;;;;;;;;;;;;;;11.85;100.00;96489.72;5093872;28;19961;-76
2022/10/14 06:28:13;;;;;;;;;;;;;;;11.84;100.00;96490.72;5093981;28;19956;-75
2022/10/14 06:30:38;;;;;;;;;;;;;;;11.83;100.00;96491.75;5094068;28;19955;-75
2022/10/14 06:33:04;;;;;;;;;;;;;;;11.83;100.00;96489.13;5094101;28;19974;-75
2022/10/14 06:35:30;;;;;;;;;;;;;;;11.83;100.00;96492.56;5093856;28;20401;-75
2022/10/14 06:37:56;;;;;;;;;;;;;;;11.84;100.00;96493.34;5093772;28;20326;-75
2022/10/14 06:40:22;;;;;;;;;;;;;;;11.83;100.00;96489.13;5093939;28;19999;-75
2022/10/14 06:42:48;;;;;;;;;;;;;;;11.82;100.00;96485.69;5093552;28;20085;-75
2022/10/14 06:45:14;;;;;;;;;;;;;;;11.82;100.00;96492.78;5093320;28;20003;-75
2022/10/14 06:47:40;;;;;;;;;;;;;;;11.83;100.00;96494.38;5092506;28;19964;-75
2022/10/14 06:50:06;;;;;;;;;;;;;;;11.86;100.00;96486.03;5093803;28;19961;-75
2022/10/14 06:52:31;;;;;;;;;;;;;;;11.86;100.00;96493.94;5093526;28;19963;-75
2022/10/14 06:54:57;;;;;;;;;;;;;;;11.87;100.00;96491.09;5093709;28;20469;-75
2022/10/14 06:57:23;;;;;;;;;;;;;;;11.94;100.00;96491.00;5091782;28;20005;-75
2022/10/14 06:59:49;;;;;;;;;;;;;;;11.98;100.00;96487.69;5093555;28;19963;-75
2022/10/14 07:02:15;;;;;;;;;;;;;;;12.03;100.00;96491.47;5093449;28;20004;-75
2022/10/14 07:04:41;;;;;;;;;;;;;;;12.05;100.00;96476.28;5093628;28;19988;-75
2022/10/14 07:07:07;;;;;;;;;;;;;;;12.09;100.00;96482.69;5093360;28;20048;-75
2022/10/14 07:09:33;;;;;;;;;;;;;;;12.13;100.00;96481.22;5093644;28;19946;-75
2022/10/14 07:12:00;;;;;;;;;;;;;;;12.17;100.00;96479.75;5093937;28;19978;-75
2022/10/14 07:14:26;;;;;;;;;;;;;;;12.23;100.00;96478.84;5093396;28;19960;-75
2022/10/14 07:16:52;;;;;;;;;;;;;;;12.28;100.00;96484.19;5093408;28;19965;-75
2022/10/14 07:19:18;;;;;;;;;;;;;;;12.30;100.00;96484.78;5093611;28;20429;-75
2022/10/14 07:21:45;;;;;;;;;;;;;;;12.34;100.00;96482.50;5093291;28;20423;-75
2022/10/14 07:24:11;;;;;;;;;;;;;;;12.31;100.00;96483.75;5093375;28;19960;-75
2022/10/14 07:26:37;;;;;;;;;;;;;;;12.34;100.00;96480.66;5093133;28;20018;-75
2022/10/14 07:29:03;;;;;;;;;;;;;;;12.36;100.00;96478.59;5093948;28;19960;-75
2022/10/14 07:31:29;;;;;;;;;;;;;;;12.37;100.00;96477.59;5093561;28;20420;-75
2022/10/14 07:33:56;;;;;;;;;;;;;;;12.41;100.00;96479.75;5093206;28;20415;-75
2022/10/14 07:36:22;;;;;;;;;;;;;;;12.45;100.00;96476.47;5093235;28;19947;-75
2022/10/14 07:38:48;;;;;;;;;;;;;;;12.49;100.00;96474.94;5093024;28;20308;-75
2022/10/14 07:41:15;;;;;;;;;;;;;;;12.55;100.00;96489.03;5093396;28;19960;-75
2022/10/14 07:43:42;;;;;;;;;;;;;;;12.66;100.00;96475.09;5092987;28;19957;-75
2022/10/14 07:46:08;;;;;;;;;;;;;;;12.74;100.00;96479.97;5077225;28;19952;-75
2022/10/14 07:48:34;;;;;;;;;;;;;;;12.83;100.00;96469.91;5093536;28;19982;-75
2022/10/14 07:51:01;;;;;;;;;;;;;;;12.94;100.00;96482.25;5093220;28;20327;-75
2022/10/14 07:53:27;;;;;;;;;;;;;;;13.06;100.00;96482.22;5092874;28;19970;-75
2022/10/14 07:55:55;;;;;;;;;;;;;;;13.12;100.00;96475.22;5094261;28;20043;-75
2022/10/14 07:58:23;;;;;;;;;;;;;;;13.12;100.00;96467.31;5097110;28;19946;-74
2022/10/14 08:00:49;;;;;;;;;;;;;;;13.10;100.00;96477.28;5096907;28;20315;-75
2022/10/14 08:03:16;;;;;;;;;;;;;;;13.06;100.00;96484.88;5096331;28;19948;-74
2022/10/14 08:05:42;;;;;;;;;;;;;;;13.04;100.00;96486.09;5096476;28;19960;-75
2022/10/14 08:08:08;;;;;;;;;;;;;;;13.03;100.00;96485.31;5095706;28;20000;-75
2022/10/14 08:10:35;;;;;;;;;;;;;;;13.04;100.00;96484.28;5096464;28;20411;-75
2022/10/14 08:13:01;;;;;;;;;;;;;;;13.05;100.00;96488.53;5096375;28;19971;-75
2022/10/14 08:15:28;;;;;;;;;;;;;;;13.05;100.00;96480.63;5096177;28;20318;-75
2022/10/14 08:17:55;;;;;;;;;;;;;;;13.02;100.00;96481.09;5096160;28;20006;-75
2022/10/14 08:20:21;;;;;;;;;;;;;;;12.97;100.00;96475.72;5096220;28;19966;-75
2022/10/14 08:22:47;;;;;;;;;;;;;;;12.95;100.00;96478.56;5096251;28;19986;-75
2022/10/14 08:25:13;;;;;;;;;;;;;;;12.98;100.00;96478.13;5096074;28;19957;-75
2022/10/14 08:27:39;;;;;;;;;;;;;;;13.01;100.00;96476.84;5096076;28;20052;-75
2022/10/14 08:30:05;;;;;;;;;;;;;;;13.05;100.00;96474.56;5095941;28;19960;-75
2022/10/14 08:32:31;;;;;;;;;;;;;;;13.10;100.00;96474.66;5096027;28;19964;-75
2022/10/14 08:34:56;;;;;;;;;;;;;;;13.14;100.00;96476.56;5095888;28;19993;-75
2022/10/14 08:37:22;;;;;;;;;;;;;;;13.17;100.00;96472.69;5096014;28;20007;-75
2022/10/14 08:39:48;;;;;;;;;;;;;;;13.17;100.00;96478.75;5095676;28;19956;-76
2022/10/14 08:42:32;;;;;;;;;;;;;;;13.15;100.00;96475.56;5095155;28;20409;-75
2022/10/14 08:45:07;;;;;;;;;;;;;;;13.15;100.00;96472.94;5085833;28;19953;-75
2022/10/14 08:47:44;;;;;;;;;;;;;;;13.15;100.00;96470.28;5095821;28;19951;-75
2022/10/14 08:50:25;;;;;;;;;;;;;;;13.11;100.00;96463.91;5096102;28;20298;-75
2022/10/14 08:52:51;;;;;;;;;;;;;;;13.14;100.00;96467.88;5095351;28;19984;-75
2022/10/14 08:55:36;;;;;;;;;;;;;;;13.20;100.00;96464.31;5095632;28;20412;-75
2022/10/14 08:58:10;;;;;;;;;;;;;;;13.31;100.00;96473.25;5095289;28;19948;-76
2022/10/14 09:00:37;;;;;;;;;;;;;;;13.33;100.00;96463.28;5095940;28;20421;-76
2022/10/14 09:03:09;;;;;;;;;;;;;;;13.39;100.00;96468.41;5095215;28;19953;-76
2022/10/14 09:05:37;;;;;;;;;;;;;;;13.47;100.00;96461.97;5095515;28;19963;-76
2022/10/14 09:08:04;;;;;;;;;;;;;;;13.57;100.00;96462.16;5094787;28;19947;-76
2022/10/14 09:10:31;;;;;;;;;;;;;;;13.66;100.00;96465.19;5095181;28;19958;-76
2022/10/14 09:13:03;;;;;;;;;;;;;;;13.70;100.00;96452.38;5095207;28;19971;-76
2022/10/14 09:15:35;;;;;;;;;;;;;;;13.69;100.00;96458.66;5094220;28;19944;-76
2022/10/14 09:18:24;;;;;;;;;;;;;;;13.73;100.00;96460.59;5094802;28;20324;-76
2022/10/14 09:20:50;;;;;;;;;;;;;;;13.85;100.00;96449.97;5086886;28;20434;-77
2022/10/14 09:23:18;;;;;;;;;;;;;;;13.98;100.00;96447.06;5095012;28;20017;-76
2022/10/14 09:25:50;;;;;;;;;;;;;;;14.12;100.00;96438.81;5095347;28;19958;-76
2022/10/14 09:28:18;;;;;;;;;;;;;;;14.21;100.00;96437.34;5084163;28;19958;-76
2022/10/14 09:30:44;;;;;;;;;;;;;;;14.36;100.00;96445.50;5095156;28;19963;-77
2022/10/14 09:33:19;;;;;;;;;;;;;;;14.54;100.00;96433.88;5094818;28;19980;-76
2022/10/14 09:35:46;;;;;;;;;;;;;;;14.70;99.98;96436.75;5094727;28;19969;-76
2022/10/14 09:38:13;;;;;;;;;;;;;;;14.71;98.07;96428.59;5094224;28;19953;-77
2022/10/14 09:40:50;;;;;;;;;;;;;;;14.75;98.11;96432.34;5094754;28;19971;-76
2022/10/14 09:43:17;;;;;;;;;;;;;;;14.77;99.49;96429.47;5094841;28;19951;-76
2022/10/14 09:45:43;;;;;;;;;;;;;;;14.88;100.00;96425.09;5094698;28;19959;-76
2022/10/14 09:48:13;;;;;;;;;;;;;;;14.96;97.79;96425.47;5094298;28;19957;-76
2022/10/14 09:50:47;;;;;;;;;;;;;;;15.00;95.82;96412.59;5094526;28;19953;-76
2022/10/14 09:53:18;;;;;;;;;;;;;;;15.05;95.08;96417.13;5094449;28;19980;-76
2022/10/14 09:55:47;;;;;;;;;;;;;;;15.05;95.33;96414.47;5094380;28;19953;-76
2022/10/14 09:58:16;;;;;;;;;;;;;;;15.02;93.31;96405.22;5094440;28;19959;-76
2022/10/14 10:00:43;;;;;;;;;;;;;;;14.99;95.01;96414.44;5093779;28;19951;-76
2022/10/14 10:03:22;;;;;;;;;;;;;;;15.01;93.50;96407.06;5094932;28;19948;-76
2022/10/14 10:05:57;;;;;;;;;;;;;;;15.05;94.02;96406.56;5094169;28;19966;-76
2022/10/14 10:08:24;;;;;;;;;;;;;;;15.05;93.59;96398.63;5094219;28;20395;-76
2022/10/14 10:10:58;;;;;;;;;;;;;;;15.06;93.73;96405.53;5094177;28;20330;-76
2022/10/14 10:13:39;;;;;;;;;;;;;;;15.09;92.73;96399.72;5094480;28;19955;-76
2022/10/14 10:16:05;;;;;;;;;;;;;;;15.12;94.45;96402.69;5093998;28;19955;-76
2022/10/14 10:18:32;;;;;;;;;;;;;;;15.17;92.98;96391.38;5092484;28;19983;-76
2022/10/14 10:21:05;;;;;;;;;;;;;;;15.15;93.09;96396.09;5094287;28;19963;-76
2022/10/14 10:23:33;;;;;;;;;;;;;;;15.12;92.58;96401.88;5092806;28;19957;-76
2022/10/14 10:26:13;;;;;;;;;;;;;;;15.06;92.32;96395.75;5093857;28;19969;-76
2022/10/14 10:28:44;;;;;;;;;;;;;;;14.99;93.22;96405.69;5094239;28;19952;-75
2022/10/14 10:31:19;;;;;;;;;;;;;;;14.93;94.80;96404.84;5094105;28;20319;-76
2022/10/14 10:34:11;;;;;;;;;;;;;;;14.92;95.93;96410.38;5093842;28;19969;-76
2022/10/14 10:36:57;;;;;;;;;;;;;;;14.85;97.13;96407.91;5080127;28;19964;-75
2022/10/14 10:39:23;;;;;;;;;;;;;;;14.81;99.01;96402.31;5093387;28;20426;-76
2022/10/14 10:42:04;;;;;;;;;;;;;;;14.79;99.64;96396.50;5093646;28;20038;-76
2022/10/14 10:44:39;;;;;;;;;;;;;;;14.78;100.00;96402.00;5093654;28;20324;-76
2022/10/14 10:47:17;;;;;;;;;;;;;;;14.72;100.00;96392.44;5093358;28;20410;-75
2022/10/14 10:49:52;;;;;;;;;;;;;;;14.64;100.00;96383.13;5093523;28;19988;-75
2022/10/14 10:52:36;;;;;;;;;;;;;;;14.63;100.00;96375.44;5092787;28;20318;-76
2022/10/14 10:55:09;;;;;;;;;;;;;;;14.60;100.00;96374.88;5093777;28;19955;-75
2022/10/14 10:57:56;;;;;;;;;;;;;;;14.63;100.00;96386.00;5093412;28;19953;-75
2022/10/14 11:00:22;;;;;;;;;;;;;;;14.62;100.00;96382.56;5093655;28;19959;-75
2022/10/14 11:02:53;;;;;;;;;;;;;;;14.64;100.00;96382.31;5093400;28;19952;-75
2022/10/14 11:05:22;;;;;;;;;;;;;;;14.67;100.00;96372.06;5093755;28;19958;-75
2022/10/14 11:13:41;;;;;;;;;;;;;;;14.86;100.00;96361.97;5093193;28;19964;-75
2022/10/14 11:16:07;;;;;;;;;;;;;;;14.97;100.00;96350.50;5093450;28;19962;-75
2022/10/14 11:18:44;;;;;;;;;;;;;;;15.08;100.00;96337.41;5093131;28;19987;-75
2022/10/14 11:21:12;;;;;;;;;;;;;;;15.18;100.00;96343.59;5093454;28;20299;-76
2022/10/14 11:23:38;;;;;;;;;;;;;;;15.27;98.17;96328.06;5093224;28;19957;-76
2022/10/14 11:26:07;;;;;;;;;;;;;;;15.33;98.92;96336.81;5093392;28;20412;-76
2022/10/14 11:28:40;;;;;;;;;;;;;;;15.36;97.06;96333.69;5093257;28;19951;-76
2022/10/14 11:31:09;;;;;;;;;;;;;;;15.38;96.58;96313.09;5096400;28;19964;-76
2022/10/14 11:33:47;;;;;;;;;;;;;;;15.40;95.68;96308.38;5096951;28;19963;-76
2022/10/14 11:36:16;;;;;;;;;;;;;;;15.40;95.15;96311.81;5097117;28;19955;-75
2022/10/14 11:38:42;;;;;;;;;;;;;;;15.44;95.31;96306.81;5095191;28;19956;-76
2022/10/14 11:41:22;;;;;;;;;;;;;;;15.51;94.61;96296.81;5096812;28;19968;-75
2022/10/14 11:43:52;;;;;;;;;;;;;;;15.60;93.23;96292.69;5097051;28;20431;-75
2022/10/14 11:46:19;;;;;;;;;;;;;;;15.67;94.08;96289.81;5097330;28;19948;-76
2022/10/14 11:48:50;;;;;;;;;;;;;;;15.75;93.89;96301.81;5097118;28;21071;-76
2022/10/14 11:51:24;;;;;;;;;;;;;;;15.81;91.46;96296.28;5096763;28;19955;-75
2022/10/14 11:53:56;;;;;;;;;;;;;;;15.85;90.94;96301.06;5097084;28;19973;-76
2022/10/14 11:56:30;;;;;;;;;;;;;;;15.87;90.78;96298.94;5096822;28;19956;-76
2022/10/14 11:59:19;;;;;;;;;;;;;;;15.86;90.04;96294.72;5096931;28;20398;-76
2022/10/14 12:01:51;;;;;;;;;;;;;;;15.81;89.76;96291.00;5096671;28;19956;-76
2022/10/14 12:04:34;;;;;;;;;;;;;;;15.83;92.04;96298.66;5096904;28;19950;-76
2022/10/14 12:07:07;;;;;;;;;;;;;;;15.89;90.97;96286.28;5081540;28;20013;-75
2022/10/14 12:09:37;;;;;;;;;;;;;;;15.93;92.08;96284.72;5096464;28;20390;-77
2022/10/14 12:12:06;;;;;;;;;;;;;;;15.95;92.59;96279.97;5096663;28;19958;-76
2022/10/14 12:14:35;;;;;;;;;;;;;;;15.93;91.33;96268.84;5084991;28;20326;-75
2022/10/14 12:17:04;;;;;;;;;;;;;;;15.92;91.93;96273.34;5096220;28;19949;-75
2022/10/14 12:19:30;;;;;;;;;;;;;;;15.86;90.81;96266.44;5096154;28;19980;-75
2022/10/14 12:22:05;;;;;;;;;;;;;;;15.87;91.93;96270.66;5096313;28;19963;-75
2022/10/14 12:24:33;;;;;;;;;;;;;;;15.92;91.71;96268.06;5095968;28;19951;-75
2022/10/14 12:27:00;;;;;;;;;;;;;;;15.95;92.10;96269.38;5095942;28;19956;-75
2022/10/14 12:29:35;;;;;;;;;;;;;;;15.96;92.64;96271.78;5095904;28;19965;-75
2022/10/14 12:32:04;;;;;;;;;;;;;;;15.95;91.64;96269.38;5096133;28;19956;-75
2022/10/14 12:34:32;;;;;;;;;;;;;;;15.92;91.75;96267.28;5095875;28;19972;-75
2022/10/14 12:36:57;;;;;;;;;;;;;;;15.89;91.61;96265.13;5095774;28;19953;-75
2022/10/14 12:39:30;;;;;;;;;;;;;;;15.82;89.79;96254.78;5095458;28;20039;-75
2022/10/14 12:41:56;;;;;;;;;;;;;;;15.77;91.04;96252.09;5095174;28;19951;-75
2022/10/14 12:44:25;;;;;;;;;;;;;;;15.72;92.00;96247.56;5095681;28;19954;-75
2022/10/14 12:46:52;;;;;;;;;;;;;;;15.69;91.27;96245.41;5095663;28;19960;-75
2022/10/14 12:49:23;;;;;;;;;;;;;;;15.66;92.91;96260.97;5095665;28;19964;-75
2022/10/14 12:51:57;;;;;;;;;;;;;;;15.63;93.03;96257.78;5095712;28;19947;-75